sensor_id;sensor_type;location;lat;lon;timestamp;temperature;humidity
10788;DHT22;5446;50.826;4.380;2023-11-19T00:00:50;13.30;99.90
10788;DHT22;5446;50.826;4.380;2023-11-19T00:03:17;13.30;99.90
10788;DHT22;5446;50.826;4.380;2023-11-19T00:05:43;13.30;99.90
10788;DHT22;5446;50.826;4.380;2023-11-19T00:08:10;13.30;99.90
10788;DHT22;5446;50.826;4.380;2023-11-19T00:10:35;13.30;99.90
10788;DHT22;5446;50.826;4.380;2023-11-19T00:13:01;13.30;99.90
10788;DHT22;5446;50.826;4.380;2023-11-19T00:15:28;13.30;99.90
10788;DHT22;5446;50.826;4.380;2023-11-19T00:17:54;13.30;99.90
10788;DHT22;5446;50.826;4.380;2023-11-19T00:20:20;13.30;99.90
10788;DHT22;5446;50.826;4.380;2023-11-19T00:22:47;13.30;99.90
10788;DHT22;5446;50.826;4.380;2023-11-19T00:25:20;13.40;99.90
10788;DHT22;5446;50.826;4.380;2023-11-19T00:27:47;13.40;99.90
10788;DHT22;5446;50.826;4.380;2023-11-19T00:30:13;13.40;99.90
10788;DHT22;5446;50.826;4.380;2023-11-19T00:32:40;13.40;99.90
10788;DHT22;5446;50.826;4.380;2023-11-19T00:35:06;13.40;99.90
10788;DHT22;5446;50.826;4.380;2023-11-19T00:37:32;13.40;99.90
10788;DHT22;5446;50.826;4.380;2023-11-19T00:39:58;13.40;99.90
10788;DHT22;5446;50.826;4.380;2023-11-19T00:42:24;13.40;99.90
10788;DHT22;5446;50.826;4.380;2023-11-19T00:44:52;13.40;99.90
10788;DHT22;5446;50.826;4.380;2023-11-19T00:47:18;13.40;99.90
10788;DHT22;5446;50.826;4.380;2023-11-19T00:49:50;13.40;99.90
10788;DHT22;5446;50.826;4.380;2023-11-19T00:52:18;13.40;99.90
10788;DHT22;5446;50.826;4.380;2023-11-19T00:54:44;13.40;99.90
10788;DHT22;5446;50.826;4.380;2023-11-19T00:57:10;13.40;99.90
10788;DHT22;5446;50.826;4.380;2023-11-19T00:59:36;13.40;99.90
10788;DHT22;5446;50.826;4.380;2023-11-19T01:02:02;13.40;99.90
10788;DHT22;5446;50.826;4.380;2023-11-19T01:04:36;13.40;99.90
10788;DHT22;5446;50.826;4.380;2023-11-19T01:07:05;13.40;99.90
10788;DHT22;5446;50.826;4.380;2023-11-19T01:09:38;13.40;99.90
10788;DHT22;5446;50.826;4.380;2023-11-19T01:12:04;13.40;99.90
10788;DHT22;5446;50.826;4.380;2023-11-19T01:14:30;13.40;99.90
10788;DHT22;5446;50.826;4.380;2023-11-19T01:16:56;13.40;99.90
10788;DHT22;5446;50.826;4.380;2023-11-19T01:19:22;13.40;99.90
10788;DHT22;5446;50.826;4.380;2023-11-19T01:21:49;13.40;99.90
10788;DHT22;5446;50.826;4.380;2023-11-19T01:24:14;13.40;99.90
10788;DHT22;5446;50.826;4.380;2023-11-19T01:26:41;13.40;99.90
10788;DHT22;5446;50.826;4.380;2023-11-19T01:29:14;13.40;99.90
10788;DHT22;5446;50.826;4.380;2023-11-19T01:31:45;13.40;99.90
10788;DHT22;5446;50.826;4.380;2023-11-19T01:34:11;13.40;99.90
10788;DHT22;5446;50.826;4.380;2023-11-19T01:36:39;13.30;99.90
10788;DHT22;5446;50.826;4.380;2023-11-19T01:39:05;13.30;99.90
10788;DHT22;5446;50.826;4.380;2023-11-19T01:41:35;13.40;99.90
10788;DHT22;5446;50.826;4.380;2023-11-19T01:44:01;13.30;99.90
10788;DHT22;5446;50.826;4.380;2023-11-19T01:46:27;13.30;99.90
10788;DHT22;5446;50.826;4.380;2023-11-19T01:48:53;13.30;99.90
10788;DHT22;5446;50.826;4.380;2023-11-19T01:51:19;13.30;99.90
10788;DHT22;5446;50.826;4.380;2023-11-19T01:53:46;13.30;99.90
10788;DHT22;5446;50.826;4.380;2023-11-19T01:56:15;13.30;99.90
10788;DHT22;5446;50.826;4.380;2023-11-19T01:58:42;13.30;99.90
10788;DHT22;5446;50.826;4.380;2023-11-19T02:01:10;13.40;99.90
10788;DHT22;5446;50.826;4.380;2023-11-19T02:03:37;13.40;99.90
10788;DHT22;5446;50.826;4.380;2023-11-19T02:06:03;13.30;99.90
10788;DHT22;5446;50.826;4.380;2023-11-19T02:08:29;13.30;99.90
10788;DHT22;5446;50.826;4.380;2023-11-19T02:10:55;13.30;99.90
10788;DHT22;5446;50.826;4.380;2023-11-19T02:13:26;13.30;99.90
10788;DHT22;5446;50.826;4.380;2023-11-19T02:15:54;13.20;99.90
10788;DHT22;5446;50.826;4.380;2023-11-19T02:18:25;13.10;99.90
10788;DHT22;5446;50.826;4.380;2023-11-19T02:20:53;13.10;99.90
10788;DHT22;5446;50.826;4.380;2023-11-19T02:23:20;13.10;99.90
10788;DHT22;5446;50.826;4.380;2023-11-19T02:28:48;13.00;99.90
10788;DHT22;5446;50.826;4.380;2023-11-19T02:31:15;12.90;99.90
10788;DHT22;5446;50.826;4.380;2023-11-19T02:33:41;12.90;99.90
10788;DHT22;5446;50.826;4.380;2023-11-19T02:36:07;12.90;99.90
10788;DHT22;5446;50.826;4.380;2023-11-19T02:38:36;12.90;99.90
10788;DHT22;5446;50.826;4.380;2023-11-19T02:41:06;12.90;99.90
10788;DHT22;5446;50.826;4.380;2023-11-19T02:43:36;12.90;99.90
10788;DHT22;5446;50.826;4.380;2023-11-19T02:46:03;12.90;99.90
10788;DHT22;5446;50.826;4.380;2023-11-19T02:48:33;12.90;99.90
10788;DHT22;5446;50.826;4.380;2023-11-19T02:51:01;13.00;99.90
10788;DHT22;5446;50.826;4.380;2023-11-19T02:53:29;13.00;99.90
10788;DHT22;5446;50.826;4.380;2023-11-19T02:55:55;13.00;99.90
10788;DHT22;5446;50.826;4.380;2023-11-19T02:58:27;12.90;99.90
10788;DHT22;5446;50.826;4.380;2023-11-19T03:00:54;13.00;99.90
10788;DHT22;5446;50.826;4.380;2023-11-19T03:03:27;13.00;99.90
10788;DHT22;5446;50.826;4.380;2023-11-19T03:06:04;12.90;99.90
10788;DHT22;5446;50.826;4.380;2023-11-19T03:08:32;12.80;99.90
10788;DHT22;5446;50.826;4.380;2023-11-19T03:10:58;12.80;99.90
10788;DHT22;5446;50.826;4.380;2023-11-19T03:13:24;12.80;99.90
10788;DHT22;5446;50.826;4.380;2023-11-19T03:15:50;12.80;99.90
10788;DHT22;5446;50.826;4.380;2023-11-19T03:18:17;12.70;99.90
10788;DHT22;5446;50.826;4.380;2023-11-19T03:20:43;12.70;99.90
10788;DHT22;5446;50.826;4.380;2023-11-19T03:23:08;12.70;99.90
10788;DHT22;5446;50.826;4.380;2023-11-19T03:25:34;12.60;99.90
10788;DHT22;5446;50.826;4.380;2023-11-19T03:28:02;12.60;99.90
10788;DHT22;5446;50.826;4.380;2023-11-19T03:30:31;12.50;99.90
10788;DHT22;5446;50.826;4.380;2023-11-19T03:32:58;12.50;99.90
10788;DHT22;5446;50.826;4.380;2023-11-19T03:35:25;12.50;99.90
10788;DHT22;5446;50.826;4.380;2023-11-19T03:37:51;12.40;99.90
10788;DHT22;5446;50.826;4.380;2023-11-19T03:40:17;12.30;99.90
10788;DHT22;5446;50.826;4.380;2023-11-19T03:42:47;12.40;99.90
10788;DHT22;5446;50.826;4.380;2023-11-19T03:45:13;12.30;99.90
10788;DHT22;5446;50.826;4.380;2023-11-19T03:47:39;12.30;99.90
10788;DHT22;5446;50.826;4.380;2023-11-19T03:50:06;12.30;99.90
10788;DHT22;5446;50.826;4.380;2023-11-19T03:52:33;12.20;99.90
10788;DHT22;5446;50.826;4.380;2023-11-19T03:54:59;12.20;99.90
10788;DHT22;5446;50.826;4.380;2023-11-19T03:57:25;12.20;99.90
10788;DHT22;5446;50.826;4.380;2023-11-19T03:59:50;12.20;99.90
10788;DHT22;5446;50.826;4.380;2023-11-19T04:02:16;12.20;99.90
10788;DHT22;5446;50.826;4.380;2023-11-19T04:04:42;12.20;99.90
10788;DHT22;5446;50.826;4.380;2023-11-19T04:07:08;12.20;99.90
10788;DHT22;5446;50.826;4.380;2023-11-19T04:09:34;12.30;99.90
10788;DHT22;5446;50.826;4.380;2023-11-19T04:12:00;12.30;99.90
10788;DHT22;5446;50.826;4.380;2023-11-19T04:14:26;12.30;99.90
10788;DHT22;5446;50.826;4.380;2023-11-19T04:16:52;12.30;99.90
10788;DHT22;5446;50.826;4.380;2023-11-19T04:19:19;12.20;99.90
10788;DHT22;5446;50.826;4.380;2023-11-19T04:21:45;12.20;99.90
10788;DHT22;5446;50.826;4.380;2023-11-19T04:24:11;12.30;99.90
10788;DHT22;5446;50.826;4.380;2023-11-19T04:26:44;12.20;99.90
10788;DHT22;5446;50.826;4.380;2023-11-19T04:29:14;12.20;99.90
10788;DHT22;5446;50.826;4.380;2023-11-19T04:31:41;12.20;99.90
10788;DHT22;5446;50.826;4.380;2023-11-19T04:34:07;12.20;99.90
10788;DHT22;5446;50.826;4.380;2023-11-19T04:36:33;12.10;99.90
10788;DHT22;5446;50.826;4.380;2023-11-19T04:39:00;12.20;99.90
10788;DHT22;5446;50.826;4.380;2023-11-19T04:41:26;12.20;99.90
10788;DHT22;5446;50.826;4.380;2023-11-19T04:43:55;12.20;99.90
10788;DHT22;5446;50.826;4.380;2023-11-19T04:46:21;12.20;99.90
10788;DHT22;5446;50.826;4.380;2023-11-19T04:48:47;12.20;99.90
10788;DHT22;5446;50.826;4.380;2023-11-19T04:51:13;12.30;99.90
10788;DHT22;5446;50.826;4.380;2023-11-19T04:53:38;12.30;99.90
10788;DHT22;5446;50.826;4.380;2023-11-19T04:56:08;12.40;99.90
10788;DHT22;5446;50.826;4.380;2023-11-19T04:58:34;12.40;99.90
10788;DHT22;5446;50.826;4.380;2023-11-19T05:01:05;12.40;99.90
10788;DHT22;5446;50.826;4.380;2023-11-19T05:03:31;12.40;99.90
10788;DHT22;5446;50.826;4.380;2023-11-19T05:06:00;12.40;99.90
10788;DHT22;5446;50.826;4.380;2023-11-19T05:08:26;12.40;99.90
10788;DHT22;5446;50.826;4.380;2023-11-19T05:10:52;12.30;99.90
10788;DHT22;5446;50.826;4.380;2023-11-19T05:13:17;12.20;99.90
10788;DHT22;5446;50.826;4.380;2023-11-19T05:15:43;12.10;99.90
10788;DHT22;5446;50.826;4.380;2023-11-19T05:18:09;12.10;99.90
10788;DHT22;5446;50.826;4.380;2023-11-19T05:20:35;12.00;99.90
10788;DHT22;5446;50.826;4.380;2023-11-19T05:23:00;11.90;99.90
10788;DHT22;5446;50.826;4.380;2023-11-19T05:25:29;11.90;99.90
10788;DHT22;5446;50.826;4.380;2023-11-19T05:27:55;11.90;99.90
10788;DHT22;5446;50.826;4.380;2023-11-19T05:30:21;11.80;99.90
10788;DHT22;5446;50.826;4.380;2023-11-19T05:32:46;11.80;99.90
10788;DHT22;5446;50.826;4.380;2023-11-19T05:35:12;11.90;99.90
10788;DHT22;5446;50.826;4.380;2023-11-19T05:37:38;11.90;99.90
10788;DHT22;5446;50.826;4.380;2023-11-19T05:40:05;11.90;99.90
10788;DHT22;5446;50.826;4.380;2023-11-19T05:42:37;12.00;99.90
10788;DHT22;5446;50.826;4.380;2023-11-19T05:45:03;11.90;99.90
10788;DHT22;5446;50.826;4.380;2023-11-19T05:47:29;11.90;99.90
10788;DHT22;5446;50.826;4.380;2023-11-19T05:49:55;11.90;99.90
10788;DHT22;5446;50.826;4.380;2023-11-19T05:52:20;11.90;99.90
10788;DHT22;5446;50.826;4.380;2023-11-19T05:54:47;11.90;99.90
10788;DHT22;5446;50.826;4.380;2023-11-19T05:57:17;11.90;99.90
10788;DHT22;5446;50.826;4.380;2023-11-19T05:59:48;11.80;99.90
10788;DHT22;5446;50.826;4.380;2023-11-19T06:02:14;11.80;99.90
10788;DHT22;5446;50.826;4.380;2023-11-19T06:04:39;11.70;99.90
10788;DHT22;5446;50.826;4.380;2023-11-19T06:07:05;11.70;99.90
10788;DHT22;5446;50.826;4.380;2023-11-19T06:09:31;11.60;99.90
10788;DHT22;5446;50.826;4.380;2023-11-19T06:11:59;11.60;99.90
10788;DHT22;5446;50.826;4.380;2023-11-19T06:14:27;11.60;99.90
10788;DHT22;5446;50.826;4.380;2023-11-19T06:16:53;11.60;99.90
10788;DHT22;5446;50.826;4.380;2023-11-19T06:19:18;11.50;99.90
10788;DHT22;5446;50.826;4.380;2023-11-19T06:21:44;11.50;99.90
10788;DHT22;5446;50.826;4.380;2023-11-19T06:24:10;11.50;99.90
10788;DHT22;5446;50.826;4.380;2023-11-19T06:26:35;11.50;99.90
10788;DHT22;5446;50.826;4.380;2023-11-19T06:29:01;11.50;99.90
10788;DHT22;5446;50.826;4.380;2023-11-19T06:31:27;11.40;99.90
10788;DHT22;5446;50.826;4.380;2023-11-19T06:33:53;11.40;99.90
10788;DHT22;5446;50.826;4.380;2023-11-19T06:36:18;11.40;99.90
10788;DHT22;5446;50.826;4.380;2023-11-19T06:38:44;11.40;99.90
10788;DHT22;5446;50.826;4.380;2023-11-19T06:41:10;11.40;99.90
10788;DHT22;5446;50.826;4.380;2023-11-19T06:43:37;11.30;99.90
10788;DHT22;5446;50.826;4.380;2023-11-19T06:46:03;11.40;99.90
10788;DHT22;5446;50.826;4.380;2023-11-19T06:48:32;11.40;99.90
10788;DHT22;5446;50.826;4.380;2023-11-19T06:50:57;11.40;99.90
10788;DHT22;5446;50.826;4.380;2023-11-19T06:53:23;11.40;99.90
10788;DHT22;5446;50.826;4.380;2023-11-19T06:55:49;11.40;99.90
10788;DHT22;5446;50.826;4.380;2023-11-19T06:58:14;11.40;99.90
10788;DHT22;5446;50.826;4.380;2023-11-19T07:00:41;11.30;99.90
10788;DHT22;5446;50.826;4.380;2023-11-19T07:03:07;11.30;99.90
10788;DHT22;5446;50.826;4.380;2023-11-19T07:05:36;11.40;99.90
10788;DHT22;5446;50.826;4.380;2023-11-19T07:08:05;11.30;99.90
10788;DHT22;5446;50.826;4.380;2023-11-19T07:10:32;11.40;99.90
10788;DHT22;5446;50.826;4.380;2023-11-19T07:12:59;11.30;99.90
10788;DHT22;5446;50.826;4.380;2023-11-19T07:15:24;11.40;99.90
10788;DHT22;5446;50.826;4.380;2023-11-19T07:17:50;11.40;99.90
10788;DHT22;5446;50.826;4.380;2023-11-19T07:20:16;11.40;99.90
10788;DHT22;5446;50.826;4.380;2023-11-19T07:22:43;11.40;99.90
10788;DHT22;5446;50.826;4.380;2023-11-19T07:25:14;11.50;99.90
10788;DHT22;5446;50.826;4.380;2023-11-19T07:27:40;11.50;99.90
10788;DHT22;5446;50.826;4.380;2023-11-19T07:30:06;11.50;99.90
10788;DHT22;5446;50.826;4.380;2023-11-19T07:32:35;11.50;99.90
10788;DHT22;5446;50.826;4.380;2023-11-19T07:35:01;11.50;99.90
10788;DHT22;5446;50.826;4.380;2023-11-19T07:37:27;11.50;99.90
10788;DHT22;5446;50.826;4.380;2023-11-19T07:39:52;11.40;99.90
10788;DHT22;5446;50.826;4.380;2023-11-19T07:42:18;11.40;99.90
10788;DHT22;5446;50.826;4.380;2023-11-19T07:44:44;11.40;99.90
10788;DHT22;5446;50.826;4.380;2023-11-19T07:47:10;11.40;99.90
10788;DHT22;5446;50.826;4.380;2023-11-19T07:49:36;11.40;99.90
10788;DHT22;5446;50.826;4.380;2023-11-19T07:52:02;11.40;99.90
10788;DHT22;5446;50.826;4.380;2023-11-19T07:54:28;11.40;99.90
10788;DHT22;5446;50.826;4.380;2023-11-19T07:56:54;11.50;99.90
10788;DHT22;5446;50.826;4.380;2023-11-19T07:59:20;11.50;99.90
10788;DHT22;5446;50.826;4.380;2023-11-19T08:01:46;11.60;99.90
10788;DHT22;5446;50.826;4.380;2023-11-19T08:04:12;11.60;99.90
10788;DHT22;5446;50.826;4.380;2023-11-19T08:06:37;11.60;99.90
10788;DHT22;5446;50.826;4.380;2023-11-19T08:09:03;11.60;99.90
10788;DHT22;5446;50.826;4.380;2023-11-19T08:11:29;11.60;99.90
10788;DHT22;5446;50.826;4.380;2023-11-19T08:13:55;11.60;99.90
10788;DHT22;5446;50.826;4.380;2023-11-19T08:16:20;11.60;99.90
10788;DHT22;5446;50.826;4.380;2023-11-19T08:18:46;11.60;99.90
10788;DHT22;5446;50.826;4.380;2023-11-19T08:21:12;11.60;99.90
10788;DHT22;5446;50.826;4.380;2023-11-19T08:23:38;11.70;99.90
10788;DHT22;5446;50.826;4.380;2023-11-19T08:26:05;11.70;99.90
10788;DHT22;5446;50.826;4.380;2023-11-19T08:28:31;11.70;99.90
10788;DHT22;5446;50.826;4.380;2023-11-19T08:30:57;11.70;99.90
10788;DHT22;5446;50.826;4.380;2023-11-19T08:33:24;11.80;99.90
10788;DHT22;5446;50.826;4.380;2023-11-19T08:35:49;11.90;99.90
10788;DHT22;5446;50.826;4.380;2023-11-19T08:38:15;11.90;99.90
10788;DHT22;5446;50.826;4.380;2023-11-19T08:40:41;12.00;99.90
10788;DHT22;5446;50.826;4.380;2023-11-19T08:43:07;12.00;99.90
10788;DHT22;5446;50.826;4.380;2023-11-19T08:45:32;12.00;99.90
10788;DHT22;5446;50.826;4.380;2023-11-19T08:47:58;11.90;99.90
10788;DHT22;5446;50.826;4.380;2023-11-19T08:50:24;11.90;99.90
10788;DHT22;5446;50.826;4.380;2023-11-19T08:52:49;11.80;99.90
10788;DHT22;5446;50.826;4.380;2023-11-19T08:55:15;11.80;99.90
10788;DHT22;5446;50.826;4.380;2023-11-19T08:57:40;11.80;99.90
10788;DHT22;5446;50.826;4.380;2023-11-19T09:00:07;11.90;99.90
10788;DHT22;5446;50.826;4.380;2023-11-19T09:02:36;12.00;99.90
10788;DHT22;5446;50.826;4.380;2023-11-19T09:05:05;12.10;99.90
10788;DHT22;5446;50.826;4.380;2023-11-19T09:07:34;12.10;99.90
10788;DHT22;5446;50.826;4.380;2023-11-19T09:10:00;12.20;99.90
10788;DHT22;5446;50.826;4.380;2023-11-19T09:12:25;12.20;99.90
10788;DHT22;5446;50.826;4.380;2023-11-19T09:14:51;12.20;99.90
10788;DHT22;5446;50.826;4.380;2023-11-19T09:17:17;12.20;99.90
10788;DHT22;5446;50.826;4.380;2023-11-19T09:19:43;12.20;99.90
10788;DHT22;5446;50.826;4.380;2023-11-19T09:22:09;12.20;99.90
10788;DHT22;5446;50.826;4.380;2023-11-19T09:24:35;12.10;99.90
10788;DHT22;5446;50.826;4.380;2023-11-19T09:27:00;12.30;99.90
10788;DHT22;5446;50.826;4.380;2023-11-19T09:29:26;12.30;99.90
10788;DHT22;5446;50.826;4.380;2023-11-19T09:31:52;12.30;99.90
10788;DHT22;5446;50.826;4.380;2023-11-19T09:34:17;12.30;99.90
10788;DHT22;5446;50.826;4.380;2023-11-19T09:36:43;12.20;99.90
10788;DHT22;5446;50.826;4.380;2023-11-19T09:39:13;12.20;99.90
10788;DHT22;5446;50.826;4.380;2023-11-19T09:41:44;12.20;99.90
10788;DHT22;5446;50.826;4.380;2023-11-19T09:44:10;12.10;99.90
10788;DHT22;5446;50.826;4.380;2023-11-19T09:46:41;12.10;99.90
10788;DHT22;5446;50.826;4.380;2023-11-19T09:49:08;12.10;99.90
10788;DHT22;5446;50.826;4.380;2023-11-19T09:51:35;12.20;99.90
10788;DHT22;5446;50.826;4.380;2023-11-19T09:54:01;12.20;99.90
10788;DHT22;5446;50.826;4.380;2023-11-19T09:56:29;12.20;99.90
10788;DHT22;5446;50.826;4.380;2023-11-19T09:58:55;12.20;99.90
10788;DHT22;5446;50.826;4.380;2023-11-19T10:01:21;12.30;99.90
10788;DHT22;5446;50.826;4.380;2023-11-19T10:03:47;12.20;99.90
10788;DHT22;5446;50.826;4.380;2023-11-19T10:06:15;12.20;99.90
10788;DHT22;5446;50.826;4.380;2023-11-19T10:08:43;12.20;99.90
10788;DHT22;5446;50.826;4.380;2023-11-19T10:11:09;12.20;99.90
10788;DHT22;5446;50.826;4.380;2023-11-19T10:13:38;12.20;99.90
10788;DHT22;5446;50.826;4.380;2023-11-19T10:18:34;12.40;99.90
10788;DHT22;5446;50.826;4.380;2023-11-19T10:21:06;12.40;99.90
10788;DHT22;5446;50.826;4.380;2023-11-19T10:23:48;12.50;99.90
10788;DHT22;5446;50.826;4.380;2023-11-19T10:26:15;12.60;99.90
10788;DHT22;5446;50.826;4.380;2023-11-19T10:28:41;12.80;99.90
10788;DHT22;5446;50.826;4.380;2023-11-19T10:31:09;13.00;99.90
10788;DHT22;5446;50.826;4.380;2023-11-19T10:33:35;13.00;99.90
10788;DHT22;5446;50.826;4.380;2023-11-19T10:36:01;13.10;99.90
10788;DHT22;5446;50.826;4.380;2023-11-19T10:38:27;13.10;99.90
10788;DHT22;5446;50.826;4.380;2023-11-19T10:40:53;13.20;99.90
10788;DHT22;5446;50.826;4.380;2023-11-19T10:43:22;13.10;99.90
10788;DHT22;5446;50.826;4.380;2023-11-19T10:45:49;13.00;99.90
10788;DHT22;5446;50.826;4.380;2023-11-19T10:48:15;13.00;99.90
10788;DHT22;5446;50.826;4.380;2023-11-19T10:50:42;13.00;99.90
10788;DHT22;5446;50.826;4.380;2023-11-19T10:53:11;12.90;99.90
10788;DHT22;5446;50.826;4.380;2023-11-19T10:55:39;13.00;99.90
10788;DHT22;5446;50.826;4.380;2023-11-19T10:58:09;13.00;99.90
10788;DHT22;5446;50.826;4.380;2023-11-19T11:01:01;12.90;99.90
10788;DHT22;5446;50.826;4.380;2023-11-19T11:03:25;12.90;99.90
10788;DHT22;5446;50.826;4.380;2023-11-19T11:05:53;12.90;99.90
10788;DHT22;5446;50.826;4.380;2023-11-19T11:08:20;12.90;99.90
10788;DHT22;5446;50.826;4.380;2023-11-19T11:10:55;12.90;99.90
10788;DHT22;5446;50.826;4.380;2023-11-19T11:13:23;13.00;99.90
10788;DHT22;5446;50.826;4.380;2023-11-19T11:15:56;13.10;99.90
10788;DHT22;5446;50.826;4.380;2023-11-19T11:18:24;13.10;99.90
10788;DHT22;5446;50.826;4.380;2023-11-19T11:21:14;13.00;99.90
10788;DHT22;5446;50.826;4.380;2023-11-19T11:35:07;12.90;99.90
10788;DHT22;5446;50.826;4.380;2023-11-19T11:37:50;12.90;99.90
10788;DHT22;5446;50.826;4.380;2023-11-19T11:40:18;12.90;99.90
10788;DHT22;5446;50.826;4.380;2023-11-19T11:42:47;12.90;99.90
10788;DHT22;5446;50.826;4.380;2023-11-19T11:45:14;12.80;99.90
10788;DHT22;5446;50.826;4.380;2023-11-19T11:50:30;13.00;99.90
10788;DHT22;5446;50.826;4.380;2023-11-19T11:55:28;13.10;99.90
10788;DHT22;5446;50.826;4.380;2023-11-19T11:57:55;13.30;99.90
10788;DHT22;5446;50.826;4.380;2023-11-19T12:00:36;13.50;99.90
10788;DHT22;5446;50.826;4.380;2023-11-19T12:03:06;13.60;99.90
10788;DHT22;5446;50.826;4.380;2023-11-19T12:05:33;13.70;99.90
10788;DHT22;5446;50.826;4.380;2023-11-19T12:08:04;13.70;99.90
10788;DHT22;5446;50.826;4.380;2023-11-19T12:10:37;13.60;99.90
10788;DHT22;5446;50.826;4.380;2023-11-19T12:13:09;13.50;99.90
10788;DHT22;5446;50.826;4.380;2023-11-19T12:18:29;13.40;99.90
10788;DHT22;5446;50.826;4.380;2023-11-19T12:20:56;13.30;99.90
10788;DHT22;5446;50.826;4.380;2023-11-19T12:23:23;13.20;99.90
10788;DHT22;5446;50.826;4.380;2023-11-19T12:25:49;13.20;99.90
10788;DHT22;5446;50.826;4.380;2023-11-19T12:28:17;13.10;99.90
10788;DHT22;5446;50.826;4.380;2023-11-19T12:30:43;13.10;99.90
10788;DHT22;5446;50.826;4.380;2023-11-19T12:33:10;13.00;99.90
10788;DHT22;5446;50.826;4.380;2023-11-19T12:35:46;12.90;99.90
10788;DHT22;5446;50.826;4.380;2023-11-19T12:38:23;12.90;99.90
10788;DHT22;5446;50.826;4.380;2023-11-19T12:41:08;12.90;99.90
10788;DHT22;5446;50.826;4.380;2023-11-19T12:43:39;12.90;99.90
10788;DHT22;5446;50.826;4.380;2023-11-19T12:46:21;12.90;99.90
10788;DHT22;5446;50.826;4.380;2023-11-19T12:48:48;13.00;99.90
10788;DHT22;5446;50.826;4.380;2023-11-19T12:51:14;13.00;99.90
10788;DHT22;5446;50.826;4.380;2023-11-19T12:53:51;13.00;99.90
10788;DHT22;5446;50.826;4.380;2023-11-19T12:56:20;13.00;99.90
10788;DHT22;5446;50.826;4.380;2023-11-19T12:58:46;13.10;99.90
10788;DHT22;5446;50.826;4.380;2023-11-19T13:01:17;13.20;99.90
10788;DHT22;5446;50.826;4.380;2023-11-19T13:03:43;13.20;99.90
10788;DHT22;5446;50.826;4.380;2023-11-19T13:06:13;13.20;99.90
10788;DHT22;5446;50.826;4.380;2023-11-19T13:08:41;13.20;99.90
10788;DHT22;5446;50.826;4.380;2023-11-19T13:11:08;13.20;99.90
10788;DHT22;5446;50.826;4.380;2023-11-19T13:14:00;13.20;99.90
10788;DHT22;5446;50.826;4.380;2023-11-19T13:16:26;13.20;99.90
10788;DHT22;5446;50.826;4.380;2023-11-19T13:18:52;13.20;99.90
10788;DHT22;5446;50.826;4.380;2023-11-19T13:21:18;13.30;99.90
10788;DHT22;5446;50.826;4.380;2023-11-19T13:23:44;13.30;99.90
10788;DHT22;5446;50.826;4.380;2023-11-19T13:26:11;13.20;99.90
10788;DHT22;5446;50.826;4.380;2023-11-19T13:28:38;13.30;99.90
10788;DHT22;5446;50.826;4.380;2023-11-19T13:31:04;13.30;99.90
10788;DHT22;5446;50.826;4.380;2023-11-19T13:33:29;13.30;99.90
10788;DHT22;5446;50.826;4.380;2023-11-19T13:35:56;13.20;99.90
10788;DHT22;5446;50.826;4.380;2023-11-19T13:38:22;13.00;99.90
10788;DHT22;5446;50.826;4.380;2023-11-19T13:40:49;12.90;99.90
10788;DHT22;5446;50.826;4.380;2023-11-19T13:43:15;12.90;99.90
10788;DHT22;5446;50.826;4.380;2023-11-19T13:45:41;13.00;99.90
10788;DHT22;5446;50.826;4.380;2023-11-19T13:48:06;12.90;99.90
10788;DHT22;5446;50.826;4.380;2023-11-19T13:50:32;12.90;99.90
10788;DHT22;5446;50.826;4.380;2023-11-19T13:52:59;12.90;99.90
10788;DHT22;5446;50.826;4.380;2023-11-19T13:55:25;12.90;99.90
10788;DHT22;5446;50.826;4.380;2023-11-19T13:57:51;12.90;99.90
10788;DHT22;5446;50.826;4.380;2023-11-19T14:00:17;12.80;99.90
10788;DHT22;5446;50.826;4.380;2023-11-19T14:02:48;12.90;99.90
10788;DHT22;5446;50.826;4.380;2023-11-19T14:05:14;12.90;99.90
10788;DHT22;5446;50.826;4.380;2023-11-19T14:07:43;13.00;99.90
10788;DHT22;5446;50.826;4.380;2023-11-19T14:10:09;12.90;99.90
10788;DHT22;5446;50.826;4.380;2023-11-19T14:12:37;13.00;99.90
10788;DHT22;5446;50.826;4.380;2023-11-19T14:15:04;13.00;99.90
10788;DHT22;5446;50.826;4.380;2023-11-19T14:17:32;13.00;99.90
10788;DHT22;5446;50.826;4.380;2023-11-19T14:19:57;12.90;99.90
10788;DHT22;5446;50.826;4.380;2023-11-19T14:22:23;12.90;99.90
10788;DHT22;5446;50.826;4.380;2023-11-19T14:24:50;13.00;99.90
10788;DHT22;5446;50.826;4.380;2023-11-19T14:27:16;13.00;99.90
10788;DHT22;5446;50.826;4.380;2023-11-19T14:29:44;13.00;99.90
10788;DHT22;5446;50.826;4.380;2023-11-19T14:32:10;12.90;99.90
10788;DHT22;5446;50.826;4.380;2023-11-19T14:34:36;12.80;99.90
10788;DHT22;5446;50.826;4.380;2023-11-19T14:37:02;12.60;99.90
10788;DHT22;5446;50.826;4.380;2023-11-19T14:39:28;12.60;99.90
10788;DHT22;5446;50.826;4.380;2023-11-19T14:41:59;12.60;99.90
10788;DHT22;5446;50.826;4.380;2023-11-19T14:44:29;12.60;99.90
10788;DHT22;5446;50.826;4.380;2023-11-19T14:46:55;12.60;99.90
10788;DHT22;5446;50.826;4.380;2023-11-19T14:49:21;12.60;99.90
10788;DHT22;5446;50.826;4.380;2023-11-19T14:51:49;12.60;99.90
10788;DHT22;5446;50.826;4.380;2023-11-19T14:54:15;12.60;99.90
10788;DHT22;5446;50.826;4.380;2023-11-19T14:56:42;12.60;99.90
10788;DHT22;5446;50.826;4.380;2023-11-19T14:59:08;12.60;99.90
10788;DHT22;5446;50.826;4.380;2023-11-19T15:01:34;12.60;99.90
10788;DHT22;5446;50.826;4.380;2023-11-19T15:04:00;12.60;99.90
10788;DHT22;5446;50.826;4.380;2023-11-19T15:06:26;12.60;99.90
10788;DHT22;5446;50.826;4.380;2023-11-19T15:08:54;12.50;99.90
10788;DHT22;5446;50.826;4.380;2023-11-19T15:11:24;12.50;99.90
10788;DHT22;5446;50.826;4.380;2023-11-19T15:13:52;12.50;99.90
10788;DHT22;5446;50.826;4.380;2023-11-19T15:16:19;12.50;99.90
10788;DHT22;5446;50.826;4.380;2023-11-19T15:18:51;12.60;99.90
10788;DHT22;5446;50.826;4.380;2023-11-19T15:21:18;12.60;99.90
10788;DHT22;5446;50.826;4.380;2023-11-19T15:24:10;12.60;99.90
10788;DHT22;5446;50.826;4.380;2023-11-19T15:33:20;12.70;99.90
10788;DHT22;5446;50.826;4.380;2023-11-19T15:35:47;12.70;99.90
10788;DHT22;5446;50.826;4.380;2023-11-19T15:42:41;12.70;99.90
10788;DHT22;5446;50.826;4.380;2023-11-19T15:48:47;12.80;99.90
10788;DHT22;5446;50.826;4.380;2023-11-19T15:51:13;12.80;99.90
10788;DHT22;5446;50.826;4.380;2023-11-19T15:53:39;12.90;99.90
10788;DHT22;5446;50.826;4.380;2023-11-19T15:56:05;12.90;99.90
10788;DHT22;5446;50.826;4.380;2023-11-19T15:58:31;12.90;99.90
10788;DHT22;5446;50.826;4.380;2023-11-19T16:00:56;12.80;99.90
10788;DHT22;5446;50.826;4.380;2023-11-19T16:03:22;12.70;99.90
10788;DHT22;5446;50.826;4.380;2023-11-19T16:05:48;12.60;99.90
10788;DHT22;5446;50.826;4.380;2023-11-19T16:15:06;12.40;99.90
10788;DHT22;5446;50.826;4.380;2023-11-19T16:18:05;12.30;99.90
10788;DHT22;5446;50.826;4.380;2023-11-19T16:20:31;12.30;99.90
10788;DHT22;5446;50.826;4.380;2023-11-19T16:22:59;12.20;99.90
10788;DHT22;5446;50.826;4.380;2023-11-19T16:25:26;12.20;99.90
10788;DHT22;5446;50.826;4.380;2023-11-19T16:27:53;12.20;99.90
10788;DHT22;5446;50.826;4.380;2023-11-19T16:30:19;12.20;99.90
10788;DHT22;5446;50.826;4.380;2023-11-19T16:32:58;12.20;99.90